EGMD Airport Information

Runway Information
Runway 03 Length 4938 ft width 121 ft
Elevation 10 ft Threshold 0 ft Heading 33
Runway 21 Length 4938 ft Width 121 ft
Elevation 12 ft Threshold 115 ft Heading 213
Runway 14 Length 2264 ft width 115 ft
Elevation 10 ft Threshold 0 ft Heading 138
Runway 32 Length 2264 ft Width 115 ft
Elevation 10 ft Threshold 0 ft Heading 318
Airport Frequencies
Type atis Name Frequency 129.225 MHZ
Type Lydd APP Name Lydd Appro Frequency 120.7 MHZ
Type TWR Name TWR Frequency 128.525 MHZ
Airport Navaids
Type VOR-DME Name Lydd Frequency 114050 KHZ
Type NDB Name Lydd Frequency 397 KHZ
Airport Weather Information & NOTAM
ADDS - METARS form results

(2033 UTC 16 October 2021)
Data provider http://aviationweather.gov/metar/data/
 
METAR text: EGMD 162020Z AUTO 19006KT 9999 NCD 13/10 Q1020
Conditions at: EGMD (LYDD AIRPORT , GB) observed 2020 UTC 16 October 2021
Temperature: 13.0°C (55°F)
Dewpoint: 10.0°C (50°F) [RH = 82%]
Pressure (altimeter): 30.12 inches Hg (1020.0 mb)
Winds: from the S (190 degrees) at 7 MPH (6 knots; 3.1 m/s)
Visibility: 6 or more miles (10+ km)
Ceiling: at least 12,000 feet AGL
Clouds: sky clear below 12,000 feet AGL
Weather: no significant weather observed at this time

METAR text: EGMD 161950Z AUTO 19007KT 9999 NCD 13/10 Q1020
Conditions at: EGMD (LYDD AIRPORT , GB) observed 1950 UTC 16 October 2021
Temperature: 13.0°C (55°F)
Dewpoint: 10.0°C (50°F) [RH = 82%]
Pressure (altimeter): 30.12 inches Hg (1020.0 mb)
Winds: from the S (190 degrees) at 8 MPH (7 knots; 3.6 m/s)
Visibility: 6 or more miles (10+ km)
Ceiling: at least 12,000 feet AGL
Clouds: sky clear below 12,000 feet AGL
Weather: no significant weather observed at this time

Forecast for: EGMD (LYDD AIRPORT , GB)
Text: TAF EGMD 161957Z 1621/1706 19007KT 9999 FEW040
Forecast period: 2100 UTC 16 October 2021 to 0600 UTC 17 October 2021
Forecast type: FROM: standard forecast or significant change
Winds: from the S (190 degrees) at 8 MPH (7 knots; 3.6 m/s)
Visibility: 6 or more miles (10+ km)
Ceiling: at least 12,000 feet AGL
Clouds: few clouds at 4000 feet AGL
Weather: no significant weather forecast for this period
Text: TEMPO 1621/1706 8000
Forecast period: 2100 UTC 16 October 2021 to 0600 UTC 17 October 2021
Forecast type: TEMPORARY: The following changes expected for less than half the time period
Visibility: 5 miles (8 km)
Ceiling: unknown
Clouds: missing
Weather: no significant weather forecast for this period
Text: PROB30 1623/1706 3000 BR
Forecast period: 2300 UTC 16 October 2021 to 0600 UTC 17 October 2021
Forecast type: PROBABLE: 30 percent likelihood of the following during this time
Visibility: 1.86 miles (2.99 km)
Ceiling: unknown
Clouds: missing
Weather: BR  (mist)